Time;durP1;ratioP1;P1;durP2;ratioP2;P2;SDS_P1;SDS_P2;PMS_P1;PMS_P2;Temp;Humidity;BMP_temperature;BMP_pressure;BME280_temperature;BME280_humidity;BME280_pressure;Samples;Min_cycle;Max_cycle;Signal;HPM_P1;HPM_P2
2023/12/04 00:01:15;;;;;;;16.40;10.00;;;1.60;1.00;;;;;;4932651;29;20564;-81
2023/12/04 00:03:42;;;;;;;15.20;9.40;;;1.50;99.90;;;;;;4938518;29;20580;-81
2023/12/04 00:06:11;;;;;;;13.93;9.23;;;1.60;1.00;;;;;;4942139;29;20544;-80
2023/12/04 00:08:39;;;;;;;14.50;8.90;;;1.60;99.90;;;;;;4936909;29;20234;-81
2023/12/04 00:11:08;;;;;;;15.20;9.70;;;1.60;1.00;;;;;;4932895;29;20701;-81
2023/12/04 00:13:36;;;;;;;15.57;8.67;;;1.50;1.00;;;;;;4939972;29;20665;-81
2023/12/04 00:16:03;;;;;;;15.03;9.00;;;1.60;1.00;;;;;;4939239;29;20213;-81
2023/12/04 00:18:31;;;;;;;15.17;10.70;;;1.60;99.90;;;;;;4930147;29;20581;-81
2023/12/04 00:20:58;;;;;;;14.10;8.70;;;1.50;99.90;;;;;;4936485;29;20236;-81
2023/12/04 00:23:26;;;;;;;13.07;8.53;;;1.60;99.90;;;;;;4937326;29;20585;-81
2023/12/04 00:25:55;;;;;;;14.27;9.73;;;1.50;49.70;;;;;;4933139;29;20194;-81
2023/12/04 00:28:24;;;;;;;12.63;9.83;;;1.60;12.40;;;;;;4937337;29;20202;-81
2023/12/04 00:30:51;;;;;;;16.13;9.73;;;1.60;21.20;;;;;;4939377;29;20229;-81
2023/12/04 00:33:19;;;;;;;16.30;9.70;;;1.60;1.00;;;;;;4940411;29;20199;-81
2023/12/04 00:35:46;;;;;;;16.47;10.10;;;1.70;1.00;;;;;;4930257;29;20195;-81
2023/12/04 00:38:13;;;;;;;13.50;9.20;;;1.60;1.00;;;;;;4938989;29;20198;-81
2023/12/04 00:40:41;;;;;;;14.13;9.13;;;1.60;1.00;;;;;;4937923;29;20668;-81
2023/12/04 00:43:08;;;;;;;12.40;8.93;;;1.60;1.00;;;;;;4940588;29;20223;-81
2023/12/04 00:45:38;;;;;;;13.93;8.83;;;1.60;1.00;;;;;;4939874;29;20206;-81
2023/12/04 00:48:05;;;;;;;11.93;7.83;;;1.60;1.00;;;;;;4939645;29;20202;-81
2023/12/04 00:50:33;;;;;;;12.47;7.83;;;1.60;99.90;;;;;;4936301;29;20217;-81
2023/12/04 00:53:01;;;;;;;11.07;7.73;;;1.70;99.90;;;;;;4938348;29;20206;-82
2023/12/04 00:55:28;;;;;;;13.60;9.10;;;1.70;99.90;;;;;;4934904;29;20204;-82
2023/12/04 00:57:56;;;;;;;12.80;8.43;;;1.70;99.00;;;;;;4935975;29;20226;-82
2023/12/04 01:00:23;;;;;;;11.50;8.37;;;1.70;99.90;;;;;;4929820;29;20229;-82
2023/12/04 01:02:52;;;;;;;14.60;9.50;;;1.70;1.00;;;;;;4937655;29;20324;-82
2023/12/04 01:05:20;;;;;;;11.07;7.83;;;1.70;26.20;;;;;;4936106;29;20701;-82
2023/12/04 01:07:47;;;;;;;11.93;7.80;;;1.70;1.00;;;;;;4941185;29;20209;-82
2023/12/04 01:10:14;;;;;;;11.87;7.57;;;1.70;1.00;;;;;;4939800;29;20226;-82
2023/12/04 01:12:42;;;;;;;11.70;8.00;;;1.80;1.00;;;;;;4938862;29;20207;-81
2023/12/04 01:15:10;;;;;;;11.43;7.47;;;1.70;1.00;;;;;;4939830;29;20209;-82
2023/12/04 01:17:37;;;;;;;12.70;8.43;;;1.80;1.00;;;;;;4937161;29;20209;-82
2023/12/04 01:20:08;;;;;;;13.17;8.20;;;1.80;1.00;;;;;;4936706;29;20230;-82
2023/12/04 01:22:35;;;;;;;12.27;7.60;;;1.80;1.00;;;;;;4940928;29;20199;-82
2023/12/04 01:25:03;;;;;;;11.13;7.67;;;1.80;1.00;;;;;;4939616;29;20685;-82
2023/12/04 01:27:30;;;;;;;11.73;7.53;;;1.80;99.90;;;;;;4933821;29;20212;-82
2023/12/04 01:29:58;;;;;;;10.50;7.50;;;1.80;99.90;;;;;;4938256;29;20222;-82
2023/12/04 01:32:25;;;;;;;11.57;8.13;;;1.80;99.90;;;;;;4939016;29;20195;-82
2023/12/04 01:34:53;;;;;;;10.77;7.53;;;1.80;99.90;;;;;;4934955;29;20214;-82
2023/12/04 01:37:21;;;;;;;11.87;7.03;;;1.80;99.90;;;;;;4938408;29;20214;-82
2023/12/04 01:39:49;;;;;;;11.70;7.83;;;1.80;99.90;;;;;;4948770;29;20218;-82
2023/12/04 01:42:16;;;;;;;10.07;7.17;;;1.90;99.90;;;;;;4934729;29;20198;-81
2023/12/04 01:44:44;;;;;;;10.83;7.73;;;1.90;99.90;;;;;;4939485;29;20218;-82
2023/12/04 01:47:12;;;;;;;12.07;7.40;;;1.90;99.90;;;;;;4936164;29;20203;-82
2023/12/04 01:49:40;;;;;;;10.90;6.93;;;1.80;99.90;;;;;;4938288;29;20242;-82
2023/12/04 01:52:08;;;;;;;11.23;7.30;;;1.80;99.90;;;;;;4940563;29;20213;-82
2023/12/04 01:54:37;;;;;;;10.90;7.57;;;1.90;99.90;;;;;;4934833;29;20202;-82
2023/12/04 01:57:06;;;;;;;10.67;7.40;;;1.90;99.90;;;;;;4933449;29;20211;-82
2023/12/04 01:59:34;;;;;;;11.43;7.53;;;1.90;99.90;;;;;;4938818;29;20241;-82
2023/12/04 02:02:02;;;;;;;9.87;6.30;;;1.90;47.20;;;;;;4942193;29;20186;-82
2023/12/04 02:04:32;;;;;;;9.23;7.00;;;1.90;32.30;;;;;;4932437;29;20226;-82
2023/12/04 02:07:00;;;;;;;10.40;6.80;;;1.90;2.20;;;;;;4939949;29;20213;-83
2023/12/04 02:09:29;;;;;;;9.43;6.53;;;1.90;41.30;;;;;;4936534;29;20233;-82
2023/12/04 02:11:58;;;;;;;10.20;7.03;;;1.90;1.00;;;;;;4940109;29;20202;-83
2023/12/04 02:14:25;;;;;;;9.77;6.93;;;2.00;1.00;;;;;;4939241;29;20198;-82
2023/12/04 02:16:55;;;;;;;9.67;6.67;;;2.00;1.00;;;;;;4941376;29;20703;-82
2023/12/04 02:19:23;;;;;;;10.73;7.40;;;2.00;1.00;;;;;;4933981;29;20225;-82
2023/12/04 02:21:50;;;;;;;8.40;6.80;;;2.00;1.00;;;;;;4939208;29;20207;-82
2023/12/04 02:24:19;;;;;;;9.70;6.70;;;2.00;1.00;;;;;;4935457;29;20207;-82
2023/12/04 02:26:51;;;;;;;8.63;6.20;;;2.10;1.00;;;;;;4938454;29;20200;-82
2023/12/04 02:29:40;;;;;;;9.07;6.63;;;2.10;1.00;;;;;;4939095;29;20728;-83
2023/12/04 02:32:12;;;;;;;9.47;6.70;;;2.00;1.00;;;;;;4932506;29;20193;-82
2023/12/04 02:34:42;;;;;;;11.03;6.53;;;2.00;1.00;;;;;;4935417;29;20577;-82
2023/12/04 02:37:11;;;;;;;11.20;6.67;;;2.00;1.00;;;;;;4937605;29;20577;-81
2023/12/04 02:39:40;;;;;;;8.37;6.53;;;2.00;1.00;;;;;;4934444;29;20223;-82
2023/12/04 02:42:08;;;;;;;8.23;6.57;;;2.10;99.90;;;;;;4938622;29;20209;-82
2023/12/04 02:44:35;;;;;;;9.47;6.27;;;2.10;99.90;;;;;;4938438;29;20233;-82
2023/12/04 02:47:02;;;;;;;10.10;6.87;;;2.00;99.90;;;;;;4935605;29;20203;-83
2023/12/04 02:49:29;;;;;;;11.20;6.73;;;2.10;99.90;;;;;;4937159;29;20234;-82
2023/12/04 02:51:58;;;;;;;9.70;6.77;;;2.10;99.90;;;;;;4940645;29;20210;-82
2023/12/04 02:54:25;;;;;;;7.80;6.07;;;2.00;99.90;;;;;;4947194;29;20220;-83
2023/12/04 02:56:54;;;;;;;10.83;6.43;;;2.10;99.90;;;;;;4937182;29;20211;-82
2023/12/04 02:59:21;;;;;;;9.30;6.20;;;2.10;99.90;;;;;;4940312;29;20222;-82
2023/12/04 03:01:49;;;;;;;9.10;6.30;;;2.10;99.90;;;;;;4937826;29;20207;-82
2023/12/04 03:04:16;;;;;;;9.70;6.63;;;2.10;99.90;;;;;;4931658;29;20219;-80
2023/12/04 03:06:44;;;;;;;9.17;6.27;;;2.10;84.40;;;;;;4934529;29;20203;-82
2023/12/04 03:09:11;;;;;;;9.57;6.23;;;2.10;1.00;;;;;;4933998;29;20600;-82
2023/12/04 03:11:41;;;;;;;8.70;6.27;;;2.10;1.00;;;;;;4940374;29;20199;-82
2023/12/04 03:14:10;;;;;;;8.77;6.53;;;2.10;1.00;;;;;;4938202;29;20207;-81
2023/12/04 03:16:37;;;;;;;8.83;6.07;;;2.10;1.00;;;;;;4936270;29;20214;-82
2023/12/04 03:19:05;;;;;;;7.17;5.77;;;2.10;1.00;;;;;;4931262;29;20228;-81
2023/12/04 03:21:32;;;;;;;7.50;5.77;;;2.10;1.00;;;;;;4932295;29;20202;-82
2023/12/04 03:23:59;;;;;;;9.87;5.90;;;2.20;1.00;;;;;;4936544;29;20686;-82
2023/12/04 03:26:26;;;;;;;10.57;6.33;;;2.20;1.00;;;;;;4935219;29;20198;-82
2023/12/04 03:28:54;;;;;;;9.43;6.10;;;2.20;1.00;;;;;;4937126;29;20233;-82
2023/12/04 03:31:23;;;;;;;7.80;5.70;;;2.20;1.00;;;;;;4936147;29;20214;-82
2023/12/04 03:33:51;;;;;;;8.97;6.67;;;2.20;1.00;;;;;;4937322;29;20206;-82
2023/12/04 03:36:18;;;;;;;8.43;6.07;;;2.10;1.00;;;;;;4937865;29;20570;-80
2023/12/04 03:38:45;;;;;;;8.00;5.23;;;2.10;1.00;;;;;;4937826;29;20219;-82
2023/12/04 03:41:16;;;;;;;8.40;5.13;;;2.20;1.00;;;;;;4935571;29;20206;-82
2023/12/04 03:43:44;;;;;;;8.70;5.27;;;2.20;99.90;;;;;;4954166;29;20213;-82
2023/12/04 03:46:11;;;;;;;7.50;5.20;;;2.20;99.90;;;;;;4935649;29;20231;-82
2023/12/04 03:48:40;;;;;;;7.40;5.47;;;2.20;99.90;;;;;;4930621;29;20241;-82
2023/12/04 03:51:08;;;;;;;6.87;5.63;;;2.20;99.90;;;;;;4938091;29;20560;-82
2023/12/04 03:53:36;;;;;;;7.80;5.30;;;2.20;99.90;;;;;;4935281;29;20210;-82
2023/12/04 03:56:04;;;;;;;6.83;4.93;;;2.30;99.90;;;;;;4932464;29;20207;-82
2023/12/04 03:58:31;;;;;;;8.03;5.23;;;2.30;99.90;;;;;;4933994;29;20234;-82
2023/12/04 04:00:59;;;;;;;6.27;4.43;;;2.30;99.90;;;;;;4931996;29;20202;-82
2023/12/04 04:03:30;;;;;;;5.37;4.33;;;2.30;99.90;;;;;;4932807;29;20214;-82
2023/12/04 04:05:59;;;;;;;6.80;5.10;;;2.30;99.90;;;;;;4938531;29;20220;-82
2023/12/04 04:08:26;;;;;;;5.87;4.70;;;2.40;99.90;;;;;;4937284;29;20206;-83
2023/12/04 04:10:54;;;;;;;7.83;5.13;;;2.40;99.90;;;;;;4931387;29;20226;-82
2023/12/04 04:13:21;;;;;;;6.93;4.90;;;2.40;99.90;;;;;;4934289;29;20196;-83
2023/12/04 04:15:49;;;;;;;7.50;5.10;;;2.40;99.90;;;;;;4935294;29;20203;-83
2023/12/04 04:18:16;;;;;;;8.83;5.40;;;2.40;99.90;;;;;;4935349;29;20214;-82
2023/12/04 04:20:44;;;;;;;6.83;4.70;;;2.50;99.90;;;;;;4952432;29;20207;-83
2023/12/04 04:23:12;;;;;;;6.23;4.30;;;2.50;99.90;;;;;;4932451;29;20203;-82
2023/12/04 04:25:40;;;;;;;5.37;4.63;;;2.50;99.90;;;;;;4936191;29;20219;-80
2023/12/04 04:28:07;;;;;;;6.63;4.00;;;2.50;99.90;;;;;;4945044;29;20203;-82
2023/12/04 04:30:35;;;;;;;7.83;4.33;;;2.50;99.90;;;;;;4937643;29;20194;-82
2023/12/04 04:33:04;;;;;;;5.17;4.30;;;2.50;99.90;;;;;;4936336;29;20207;-80
2023/12/04 04:35:31;;;;;;;6.53;4.37;;;2.50;99.90;;;;;;4933615;29;20209;-82
2023/12/04 04:37:59;;;;;;;6.50;4.50;;;2.50;99.90;;;;;;4934566;29;20572;-82
2023/12/04 04:40:28;;;;;;;6.80;4.03;;;2.50;99.90;;;;;;4925576;29;20219;-81
2023/12/04 04:42:55;;;;;;;4.30;3.20;;;2.50;99.90;;;;;;4941169;29;20560;-82
2023/12/04 04:45:22;;;;;;;7.17;4.40;;;2.60;99.90;;;;;;4933884;29;20652;-82
2023/12/04 04:47:50;;;;;;;6.60;4.60;;;2.60;99.90;;;;;;4934517;29;20210;-82
2023/12/04 04:50:17;;;;;;;6.10;4.50;;;2.50;99.90;;;;;;4941539;29;20686;-82
2023/12/04 04:52:45;;;;;;;6.13;4.03;;;2.60;99.90;;;;;;4935980;29;20565;-82
2023/12/04 04:55:12;;;;;;;6.57;4.23;;;2.60;99.90;;;;;;4936848;29;20199;-82
2023/12/04 04:57:41;;;;;;;6.37;4.27;;;2.60;99.90;;;;;;4934738;29;20200;-82
2023/12/04 05:00:09;;;;;;;5.70;4.03;;;2.50;99.90;;;;;;4933925;29;20226;-82
2023/12/04 05:02:37;;;;;;;6.00;4.37;;;2.60;99.90;;;;;;4930104;29;20204;-82
2023/12/04 05:05:05;;;;;;;5.70;4.37;;;2.60;99.90;;;;;;4934957;29;20211;-83
2023/12/04 05:07:32;;;;;;;6.80;4.40;;;2.50;99.90;;;;;;4936470;29;20210;-83
2023/12/04 05:09:59;;;;;;;6.17;4.10;;;2.50;99.90;;;;;;4931497;29;20221;-82
2023/12/04 05:12:27;;;;;;;5.43;3.93;;;2.50;99.90;;;;;;4938816;29;20199;-82
2023/12/04 05:14:56;;;;;;;6.30;4.17;;;2.60;99.90;;;;;;4933116;29;20219;-82
2023/12/04 05:17:23;;;;;;;7.03;4.83;;;2.60;98.20;;;;;;4936770;29;20210;-82
2023/12/04 05:19:51;;;;;;;4.77;4.27;;;2.60;99.30;;;;;;4932903;29;20247;-83
2023/12/04 05:22:18;;;;;;;5.70;4.10;;;2.50;99.90;;;;;;4939635;29;20207;-82
2023/12/04 05:24:45;;;;;;;5.20;4.20;;;2.50;99.90;;;;;;4936338;29;20199;-82
2023/12/04 05:27:13;;;;;;;7.10;4.70;;;2.50;99.90;;;;;;4934511;29;20224;-82
2023/12/04 05:29:40;;;;;;;5.73;4.20;;;2.50;99.90;;;;;;4934416;29;20228;-83
2023/12/04 05:32:09;;;;;;;6.23;4.40;;;2.50;99.90;;;;;;4932112;29;20199;-82
2023/12/04 05:34:36;;;;;;;7.87;5.17;;;2.50;99.90;;;;;;4936744;29;20199;-82
2023/12/04 05:37:04;;;;;;;7.20;4.87;;;2.50;99.90;;;;;;4937150;29;20199;-82
2023/12/04 05:39:32;;;;;;;6.33;4.50;;;2.60;99.90;;;;;;4929455;29;20247;-82
2023/12/04 05:41:59;;;;;;;7.37;4.97;;;2.60;99.90;;;;;;4937083;29;20573;-82
2023/12/04 05:44:26;;;;;;;6.33;5.07;;;2.50;99.90;;;;;;4939414;29;20204;-83
2023/12/04 05:46:54;;;;;;;5.67;4.40;;;2.50;99.90;;;;;;4937230;29;20228;-83
2023/12/04 05:49:23;;;;;;;5.30;4.60;;;2.50;99.90;;;;;;4930277;29;20234;-82
2023/12/04 05:51:50;;;;;;;5.27;4.50;;;2.50;99.90;;;;;;4937279;29;20195;-83
2023/12/04 05:54:18;;;;;;;5.77;4.47;;;2.50;99.90;;;;;;4931835;29;20207;-82
2023/12/04 05:56:49;;;;;;;7.43;5.27;;;2.50;99.90;;;;;;4940698;29;20203;-82
2023/12/04 05:59:17;;;;;;;7.10;5.03;;;2.50;99.90;;;;;;4938650;29;20724;-82
2023/12/04 06:01:44;;;;;;;5.70;4.23;;;2.50;99.90;;;;;;4939382;29;20207;-82
2023/12/04 06:04:12;;;;;;;6.53;4.63;;;2.50;99.90;;;;;;4938080;29;20203;-82
2023/12/04 06:06:41;;;;;;;7.00;4.67;;;2.50;99.90;;;;;;4930783;29;20681;-83
2023/12/04 06:09:08;;;;;;;5.60;4.13;;;2.50;99.90;;;;;;4943356;29;20223;-82
2023/12/04 06:11:35;;;;;;;5.47;4.00;;;2.50;99.90;;;;;;4939836;29;20196;-82
2023/12/04 06:14:03;;;;;;;5.57;4.43;;;2.50;99.90;;;;;;4932249;29;20211;-82
2023/12/04 06:16:31;;;;;;;6.83;5.07;;;2.50;99.90;;;;;;4937464;29;20223;-82
2023/12/04 06:18:59;;;;;;;6.97;4.27;;;2.50;99.90;;;;;;4939671;29;20224;-82
2023/12/04 06:21:27;;;;;;;7.43;4.77;;;2.50;98.50;;;;;;4937457;29;20210;-82
2023/12/04 06:23:56;;;;;;;8.23;4.60;;;2.50;96.40;;;;;;4948518;29;20216;-82
2023/12/04 06:26:24;;;;;;;5.77;4.47;;;2.50;97.30;;;;;;4939810;29;20222;-82
2023/12/04 06:28:52;;;;;;;5.90;4.40;;;2.50;90.90;;;;;;4938557;29;20220;-82
2023/12/04 06:31:20;;;;;;;6.30;4.23;;;2.50;90.60;;;;;;4936333;29;20691;-82
2023/12/04 06:33:48;;;;;;;6.60;4.63;;;2.50;90.10;;;;;;4930902;29;20198;-82
2023/12/04 06:36:18;;;;;;;6.40;4.80;;;2.50;91.90;;;;;;4939839;29;20202;-82
2023/12/04 06:38:50;;;;;;;7.03;4.60;;;2.50;91.60;;;;;;4931698;29;20229;-82
2023/12/04 06:41:21;;;;;;;5.90;3.97;;;2.50;87.50;;;;;;4937588;29;20680;-81
2023/12/04 06:43:49;;;;;;;7.10;4.87;;;2.50;89.00;;;;;;4939102;29;20218;-82
2023/12/04 06:46:17;;;;;;;5.80;4.43;;;2.50;82.90;;;;;;4929313;29;20219;-82
2023/12/04 06:48:45;;;;;;;6.10;4.40;;;2.40;82.80;;;;;;4934497;28;20243;-82
2023/12/04 06:51:13;;;;;;;5.70;4.37;;;2.40;87.00;;;;;;4938569;29;20210;-82
2023/12/04 06:53:40;;;;;;;7.27;4.50;;;2.50;91.30;;;;;;4936776;29;20204;-82
2023/12/04 06:56:09;;;;;;;6.70;4.50;;;2.40;90.40;;;;;;4972144;23;20711;-80
2023/12/04 06:58:38;;;;;;;10.27;4.70;;;2.40;89.40;;;;;;4954295;29;20213;-81
2023/12/04 07:01:06;;;;;;;6.00;4.90;;;2.40;99.90;;;;;;4952611;29;20201;-78
2023/12/04 07:03:33;;;;;;;5.97;4.87;;;2.50;88.90;;;;;;4947321;28;20202;-77
2023/12/04 07:06:00;;;;;;;5.83;4.43;;;2.50;88.60;;;;;;4938718;28;20575;-78
2023/12/04 07:08:28;;;;;;;6.73;4.73;;;2.40;91.30;;;;;;4944675;29;20204;-78
2023/12/04 07:10:55;;;;;;;6.20;4.60;;;2.40;89.20;;;;;;4934213;29;20208;-78
2023/12/04 07:13:23;;;;;;;6.63;4.60;;;2.50;96.20;;;;;;4933541;29;20207;-78
2023/12/04 07:15:52;;;;;;;6.13;4.80;;;2.50;90.00;;;;;;4928501;29;20229;-78
2023/12/04 07:18:19;;;;;;;7.43;4.90;;;2.50;87.10;;;;;;4928031;29;20203;-78
2023/12/04 07:20:47;;;;;;;6.37;4.63;;;2.60;84.50;;;;;;4950027;29;20198;-78
2023/12/04 07:23:15;;;;;;;6.70;4.93;;;2.60;82.80;;;;;;4950398;28;20213;-78
2023/12/04 07:25:42;;;;;;;5.63;4.37;;;2.60;88.30;;;;;;4934791;29;20234;-78
2023/12/04 07:28:09;;;;;;;6.87;4.67;;;2.60;79.70;;;;;;4934687;29;20222;-78
2023/12/04 07:30:37;;;;;;;5.60;4.17;;;2.60;74.80;;;;;;4922661;29;20601;-78
2023/12/04 07:33:06;;;;;;;5.37;4.17;;;2.50;74.20;;;;;;4931065;29;20215;-78
2023/12/04 07:35:33;;;;;;;5.73;4.47;;;2.60;79.70;;;;;;4932716;29;20226;-78
2023/12/04 07:38:01;;;;;;;6.13;4.03;;;2.60;90.30;;;;;;4934779;29;20210;-78
2023/12/04 07:40:28;;;;;;;6.33;4.27;;;2.70;66.90;;;;;;4932132;29;20206;-78
2023/12/04 07:42:55;;;;;;;5.67;4.30;;;2.60;75.30;;;;;;4935931;29;20679;-78
2023/12/04 07:45:24;;;;;;;6.43;4.33;;;2.60;62.10;;;;;;4934767;29;20220;-78
2023/12/04 07:47:52;;;;;;;6.53;5.30;;;2.60;91.50;;;;;;4934797;29;20258;-78
2023/12/04 07:50:20;;;;;;;5.87;4.20;;;2.60;92.20;;;;;;4950918;28;20207;-78
2023/12/04 07:52:51;;;;;;;5.20;4.60;;;2.60;54.70;;;;;;4933193;29;20477;-77
2023/12/04 07:55:18;;;;;;;5.73;4.37;;;2.60;57.00;;;;;;4951184;28;20231;-78
2023/12/04 07:57:47;;;;;;;5.43;4.60;;;2.60;71.10;;;;;;4936647;29;20202;-78
2023/12/04 08:00:17;;;;;;;5.27;4.07;;;2.60;64.80;;;;;;4933238;29;20201;-78
2023/12/04 08:02:45;;;;;;;6.13;4.20;;;2.60;70.30;;;;;;4935010;29;20203;-78
2023/12/04 08:05:13;;;;;;;5.27;4.10;;;2.60;54.90;;;;;;4935032;29;20228;-78
2023/12/04 08:07:42;;;;;;;6.57;4.90;;;2.60;58.90;;;;;;4935829;29;20225;-78
2023/12/04 08:10:09;;;;;;;7.73;4.83;;;2.60;53.80;;;;;;4935656;29;20194;-78
2023/12/04 08:12:37;;;;;;;7.30;4.50;;;2.60;52.90;;;;;;4936313;29;20195;-78
2023/12/04 08:15:05;;;;;;;6.43;5.00;;;2.60;66.20;;;;;;4931736;29;20220;-78
2023/12/04 08:17:33;;;;;;;5.73;4.10;;;2.70;59.80;;;;;;4935899;29;20192;-78
2023/12/04 08:20:01;;;;;;;7.30;5.17;;;2.60;55.80;;;;;;4942056;29;20199;-78
2023/12/04 08:22:28;;;;;;;6.40;4.50;;;2.60;65.00;;;;;;4958373;29;20224;-77
2023/12/04 08:24:58;;;;;;;9.47;5.03;;;2.60;58.90;;;;;;4936975;29;20230;-77
2023/12/04 08:27:25;;;;;;;6.53;4.73;;;2.60;52.30;;;;;;4945751;29;20610;-78
2023/12/04 08:29:52;;;;;;;6.23;4.60;;;2.60;55.50;;;;;;4933672;29;20208;-77
2023/12/04 08:32:21;;;;;;;9.57;5.13;;;2.60;57.30;;;;;;4933285;29;20208;-78
2023/12/04 08:34:48;;;;;;;7.67;5.40;;;2.60;57.60;;;;;;4926905;29;20540;-77
2023/12/04 08:37:15;;;;;;;7.60;5.47;;;2.50;74.60;;;;;;4930834;29;20202;-78
2023/12/04 08:39:43;;;;;;;6.07;4.67;;;2.60;69.10;;;;;;4929093;29;20204;-78
2023/12/04 08:42:13;;;;;;;7.90;4.70;;;2.60;68.30;;;;;;4935839;29;20213;-78
2023/12/04 08:44:41;;;;;;;5.87;4.27;;;2.70;54.20;;;;;;4926455;29;20672;-78
2023/12/04 08:47:08;;;;;;;6.13;4.47;;;2.70;50.20;;;;;;4940401;29;20226;-78
2023/12/04 08:49:35;;;;;;;6.30;3.87;;;2.80;42.10;;;;;;4930516;29;20216;-78
2023/12/04 08:52:03;;;;;;;6.10;4.40;;;2.70;45.80;;;;;;4947710;28;20211;-78
2023/12/04 08:54:31;;;;;;;6.47;4.80;;;2.80;38.00;;;;;;4928310;29;20200;-78
2023/12/04 08:56:58;;;;;;;6.90;4.63;;;2.90;41.10;;;;;;4931945;29;20239;-78
2023/12/04 08:59:27;;;;;;;6.20;4.37;;;2.90;26.50;;;;;;4931978;29;20213;-78
2023/12/04 09:01:54;;;;;;;6.17;4.43;;;2.90;24.70;;;;;;4933450;29;20209;-78
2023/12/04 09:04:22;;;;;;;6.60;4.03;;;2.90;20.30;;;;;;4947646;29;20200;-78
2023/12/04 09:06:50;;;;;;;5.80;4.07;;;3.00;20.10;;;;;;4933159;29;20235;-78
2023/12/04 09:09:18;;;;;;;6.43;4.07;;;3.00;15.10;;;;;;4933290;29;20206;-78
2023/12/04 09:11:47;;;;;;;6.20;4.00;;;3.10;9.80;;;;;;4933129;29;20213;-78
2023/12/04 09:14:15;;;;;;;5.33;3.87;;;3.00;14.70;;;;;;4950087;29;20213;-78
2023/12/04 09:16:44;;;;;;;5.10;3.77;;;3.10;9.10;;;;;;4935276;29;20220;-78
2023/12/04 09:19:12;;;;;;;6.00;3.87;;;3.10;2.10;;;;;;4941266;28;20198;-78
2023/12/04 09:21:40;;;;;;;5.23;3.53;;;3.10;1.00;;;;;;4948167;28;20213;-78
2023/12/04 09:24:07;;;;;;;5.10;4.00;;;3.20;1.00;;;;;;4930986;29;20208;-77
2023/12/04 09:26:35;;;;;;;6.40;4.17;;;3.20;1.00;;;;;;4928316;29;20236;-78
2023/12/04 09:29:16;;;;;;;5.33;3.73;;;3.20;1.00;;;;;;4955728;28;20222;-78
2023/12/04 09:31:45;;;;;;;4.87;3.50;;;3.30;1.00;;;;;;4937815;29;20214;-77
2023/12/04 09:34:12;;;;;;;5.73;4.07;;;3.30;1.00;;;;;;4940898;29;20555;-77
2023/12/04 09:36:40;;;;;;;4.63;3.43;;;3.40;1.00;;;;;;4936829;29;20220;-78
2023/12/04 09:39:08;;;;;;;4.40;3.30;;;3.40;1.00;;;;;;4933306;29;20205;-77
2023/12/04 09:41:35;;;;;;;4.77;3.53;;;3.40;1.00;;;;;;4933880;29;20193;-78
2023/12/04 09:44:03;;;;;;;5.80;3.90;;;3.40;1.00;;;;;;4955380;28;20567;-78
2023/12/04 09:46:31;;;;;;;4.43;3.43;;;3.50;1.00;;;;;;4938500;29;20232;-78
2023/12/04 09:49:01;;;;;;;5.10;3.90;;;3.50;1.00;;;;;;4945436;29;20221;-78
2023/12/04 09:51:29;;;;;;;5.10;3.53;;;3.50;1.00;;;;;;4938876;29;20213;-78
2023/12/04 09:54:01;;;;;;;6.03;3.77;;;3.60;1.00;;;;;;4940690;29;20218;-78
2023/12/04 09:56:30;;;;;;;6.03;3.83;;;3.60;1.00;;;;;;4937399;29;20245;-78
2023/12/04 09:59:00;;;;;;;5.27;3.47;;;3.60;1.00;;;;;;4937232;29;20653;-78
2023/12/04 10:01:29;;;;;;;5.03;3.83;;;3.70;1.00;;;;;;4936929;29;20215;-78
2023/12/04 10:03:58;;;;;;;6.03;3.97;;;3.80;1.00;;;;;;4940970;29;20205;-78
2023/12/04 10:06:28;;;;;;;5.00;3.57;;;3.80;1.00;;;;;;4934015;29;20230;-78
2023/12/04 10:08:58;;;;;;;4.13;3.37;;;3.80;1.00;;;;;;4953205;28;20224;-80
2023/12/04 10:11:26;;;;;;;5.07;3.90;;;3.80;6.00;;;;;;4943862;29;20666;-80
2023/12/04 10:13:55;;;;;;;5.53;3.60;;;3.70;15.90;;;;;;4952161;28;20680;-80
2023/12/04 10:16:36;;;;;;;4.67;3.37;;;3.70;26.00;;;;;;4936581;29;20223;-81
2023/12/04 10:19:18;;;;;;;3.90;3.37;;;3.80;28.20;;;;;;4952701;28;20213;-80
2023/12/04 10:21:48;;;;;;;4.23;3.17;;;3.80;38.40;;;;;;4948147;28;20206;-81
2023/12/04 10:24:29;;;;;;;4.70;3.53;;;3.90;43.70;;;;;;4936460;29;20188;-80
2023/12/04 10:27:01;;;;;;;6.10;3.50;;;4.00;51.60;;;;;;4939278;29;20230;-78
2023/12/04 10:29:43;;;;;;;5.23;3.20;;;3.90;27.90;;;;;;4939330;29;20227;-78
2023/12/04 10:32:47;;;;;;;;;;;;;;;;;;;;;
2023/12/04 10:35:46;;;;;;;5.10;3.70;;;4.00;28.40;;;;;;4892082;29;20224;-78
2023/12/04 10:38:54;;;;;;;6.27;3.63;;;4.00;17.30;;;;;;4941125;29;20210;-78
2023/12/04 10:45:28;;;;;;;;;;;;;;;;;;;;;
2023/12/04 10:47:57;;;;;;;3.97;3.20;;;3.80;7.70;;;;;;4939399;28;20213;-79
2023/12/04 10:50:27;;;;;;;6.17;4.07;;;3.80;1.00;;;;;;4927615;29;20215;-78
2023/12/04 10:52:55;;;;;;;3.87;3.47;;;3.80;1.00;;;;;;4932808;29;20707;-78
2023/12/04 10:55:22;;;;;;;6.10;4.23;;;3.80;1.00;;;;;;4946941;28;20252;-78
2023/12/04 10:57:54;;;;;;;5.20;4.27;;;3.70;3.90;;;;;;4946714;29;20202;-77
2023/12/04 11:00:22;;;;;;;6.77;4.40;;;3.70;8.80;;;;;;4928420;29;20210;-78
2023/12/04 11:02:55;;;;;;;5.27;4.33;;;3.70;4.90;;;;;;4935415;29;20206;-78
2023/12/04 11:05:25;;;;;;;6.20;3.97;;;3.80;3.20;;;;;;4927039;29;20226;-78
2023/12/04 11:07:59;;;;;;;5.77;3.97;;;3.80;9.30;;;;;;4953329;28;20221;-78
2023/12/04 11:10:29;;;;;;;5.30;4.33;;;3.70;4.50;;;;;;4931735;29;20199;-77
2023/12/04 11:13:03;;;;;;;6.10;4.07;;;3.70;10.70;;;;;;4951044;28;20203;-79
2023/12/04 11:15:32;;;;;;;5.67;4.70;;;3.70;15.50;;;;;;4957447;28;20233;-78
2023/12/04 11:18:01;;;;;;;6.50;4.50;;;3.70;16.50;;;;;;4941559;28;20207;-79
2023/12/04 11:20:33;;;;;;;4.93;3.83;;;3.60;24.90;;;;;;4930673;29;20202;-78
2023/12/04 11:23:06;;;;;;;6.63;4.57;;;3.60;21.20;;;;;;4930949;29;20570;-78
2023/12/04 11:25:36;;;;;;;6.97;4.87;;;4.00;44.70;;;;;;4934532;29;20226;-78
2023/12/04 11:28:04;;;;;;;7.47;4.97;;;4.40;39.50;;;;;;4948318;28;20213;-79
2023/12/04 11:30:33;;;;;;;7.07;4.80;;;3.90;33.50;;;;;;4934417;29;20206;-78
2023/12/04 11:33:01;;;;;;;6.33;4.70;;;3.70;34.90;;;;;;4952768;28;20217;-78
2023/12/04 11:35:30;;;;;;;7.20;4.97;;;3.60;45.20;;;;;;4945766;28;20228;-77
2023/12/04 11:37:58;;;;;;;7.37;5.17;;;3.50;46.00;;;;;;4930425;28;20298;-78
2023/12/04 11:40:26;;;;;;;7.37;5.17;;;3.50;50.80;;;;;;4940793;29;20353;-78
2023/12/04 11:42:53;;;;;;;5.93;4.90;;;3.50;62.50;;;;;;4938756;29;20208;-78
2023/12/04 11:45:22;;;;;;;7.10;5.90;;;3.40;62.70;;;;;;4926936;29;20224;-78
2023/12/04 11:47:51;;;;;;;7.73;5.63;;;3.40;74.10;;;;;;4951340;28;20217;-78
2023/12/04 11:50:20;;;;;;;7.87;4.83;;;3.50;87.80;;;;;;4943017;28;20677;-77
2023/12/04 11:52:49;;;;;;;8.90;5.83;;;3.40;84.20;;;;;;4945279;28;20211;-78
2023/12/04 11:55:18;;;;;;;6.50;5.20;;;3.40;93.30;;;;;;4937053;28;20244;-78
2023/12/04 11:57:46;;;;;;;6.67;5.50;;;3.30;99.60;;;;;;4944746;28;20196;-78
2023/12/04 12:00:21;;;;;;;7.67;5.83;;;3.30;99.90;;;;;;4921992;29;20199;-77
2023/12/04 12:03:02;;;;;;;7.40;6.07;;;3.30;99.90;;;;;;4946945;29;20203;-77
2023/12/04 12:05:32;;;;;;;9.20;5.63;;;3.30;99.90;;;;;;4932097;29;20237;-78
2023/12/04 12:08:03;;;;;;;8.20;5.90;;;3.20;99.90;;;;;;4930847;29;20214;-79
2023/12/04 12:10:31;;;;;;;8.90;5.77;;;3.20;99.90;;;;;;4935844;29;20228;-78
2023/12/04 12:12:59;;;;;;;6.73;5.43;;;3.20;99.90;;;;;;4938333;28;20209;-77
2023/12/04 12:15:27;;;;;;;8.97;5.57;;;3.20;99.90;;;;;;4932146;29;20229;-77
2023/12/04 12:17:54;;;;;;;9.17;6.37;;;3.20;99.90;;;;;;4952996;28;20209;-76
2023/12/04 12:20:22;;;;;;;8.03;5.63;;;3.20;99.90;;;;;;4928982;29;20201;-79
2023/12/04 12:22:50;;;;;;;7.30;5.83;;;3.20;1.00;;;;;;4931669;29;20576;-79
2023/12/04 12:25:19;;;;;;;8.70;6.50;;;3.20;1.00;;;;;;4932741;29;20222;-79
2023/12/04 12:27:47;;;;;;;7.70;6.03;;;3.20;1.00;;;;;;4932410;29;20199;-79
2023/12/04 12:30:14;;;;;;;7.47;5.70;;;3.20;1.00;;;;;;4933997;29;20251;-79
2023/12/04 12:32:42;;;;;;;8.97;6.33;;;3.20;1.00;;;;;;4933292;29;20205;-79
2023/12/04 12:35:09;;;;;;;8.57;5.97;;;3.20;1.00;;;;;;4934028;29;20231;-79
2023/12/04 12:37:39;;;;;;;10.63;5.70;;;3.10;1.00;;;;;;4931093;29;20197;-79
2023/12/04 12:40:09;;;;;;;7.80;6.10;;;3.20;99.90;;;;;;4932730;29;20217;-79
2023/12/04 12:42:41;;;;;;;9.43;6.10;;;3.10;99.90;;;;;;4932219;29;20205;-79
2023/12/04 12:45:11;;;;;;;10.13;7.30;;;3.10;99.90;;;;;;4933956;29;20264;-80
2023/12/04 12:47:38;;;;;;;9.07;6.47;;;3.10;99.90;;;;;;4933564;29;20218;-79
2023/12/04 12:50:10;;;;;;;8.87;6.20;;;3.20;99.90;;;;;;4948373;28;20216;-79
2023/12/04 12:52:38;;;;;;;8.33;6.43;;;3.20;1.00;;;;;;4933011;29;20211;-79
2023/12/04 12:55:06;;;;;;;7.87;6.03;;;3.10;1.00;;;;;;4933135;29;20733;-79
2023/12/04 12:57:34;;;;;;;7.63;5.87;;;3.00;1.00;;;;;;4932708;29;20207;-79
2023/12/04 13:00:05;;;;;;;8.90;6.70;;;3.10;1.00;;;;;;4930318;29;20212;-79
2023/12/04 13:02:37;;;;;;;9.97;6.60;;;3.10;1.00;;;;;;4935024;29;20205;-79
2023/12/04 13:05:07;;;;;;;7.60;6.03;;;3.10;99.70;;;;;;4952609;28;20229;-79
2023/12/04 13:07:34;;;;;;;9.90;7.00;;;3.10;99.90;;;;;;4950005;28;20217;-79
2023/12/04 13:10:04;;;;;;;8.33;6.47;;;3.10;99.90;;;;;;4939382;29;20215;-81
2023/12/04 13:12:32;;;;;;;10.20;6.67;;;3.10;99.90;;;;;;4946508;28;20209;-73